Cincinnati Northern Kentucky International Airport
KCVG : now visible

Airfield :











YOU CAN JOIN US ON...

 
LOGIN :

Register | Disclaimer

   EN    FR    IT 

 









Legend :    VFR   Marginal VFR   IFR   Intensive IFR   Very Intensive IFR
Visi :
Ceiling :
>= 8 km
>= 3000ft
5 to 8 km
1000 to 3000 ft
1500m to 5 km
500 to 1000 ft
800 to 1500m
200 to 500 ft
< 800m
< 200 ft
Symbols :   Thunderstorms  Fog  Heavy snow  Heavy precipitations  Wind > 20 kt






- Airport Elevation : 896 ft
- IATA code : CVG


KCVG - Cincinnati Northern Kentucky International

CURRENT METAR :
  • 092152Z 29019G28KT 10SM FEW080 BKN095 11/M06 A2975 RMK AO2 PK WND 32031/2129 SLP073 VIRGA W-N-NE T01061056

EXPIRED METARs :
  • 092052Z 32022G34KT 10SM SCT085 13/M07 A2972 RMK AO2 PK WND 30035/2016 SLP062 VIRGA NW-N T01281067 55014
  • 091952Z 30020G27KT 10SM FEW075 SCT250 13/M07 A2972 RMK AO2 PK WND 30031/1912 SLP059 T01331067

TAF KCVG
Valid from the 09 at 21:00 until the 11 at 00:00 UTC


092102Z 0921/1024 30020G30KT P6SM SCT045
FM100100 29015G25KT P6SM VCSH BKN045
TEMPO 1002/1003 5SM -RASN BKN030
FM100300 31012KT P6SM BKN040
FM100600 30010KT P6SM FEW090
FM101400 30012G22KT P6SM SCT035



MET'MAP, your aeronautical weather chart ! - Copyright ORBIFLY December 2007 - Disclaimer

ORBIFLY MET'MAP TEAM :

Programming & Development : Alexandra Zaïnal
Concept & original design : Baudouin d'Aumeries
Assistance for programming : Marc-Olivier Méhu
Technical & hardware support : Manuel Goepfert

Contact : metmap@orbifly.com




SOURCES & CREDITS :

   NOAA       Earth
Advisory